createdAt,value
2019-04-11T08:15:27.202Z,64
2019-04-11T08:16:31.413Z,58
2019-04-11T08:17:46.559Z,60
2019-04-11T08:18:51.415Z,61
2019-04-11T08:19:57.343Z,61
2019-04-11T08:20:59.861Z,59
2019-04-11T08:22:03.440Z,58
2019-04-11T08:23:09.877Z,57
2019-04-11T08:24:13.251Z,57
2019-04-11T08:25:17.838Z,56
2019-04-11T08:26:22.261Z,54
2019-04-11T08:27:27.645Z,54
2019-04-11T08:28:33.880Z,54
2019-04-11T08:29:39.140Z,55
2019-04-11T08:30:43.895Z,57
2019-04-11T08:31:47.094Z,60
2019-04-11T08:32:50.475Z,62
2019-04-11T08:33:53.554Z,63
2019-04-11T08:34:56.790Z,66
2019-04-11T08:36:02.007Z,72
2019-04-11T08:37:05.948Z,78
2019-04-11T08:38:12.216Z,88
2019-04-11T08:39:18.029Z,88
2019-04-11T08:40:23.861Z,93
2019-04-11T08:41:27.944Z,100
2019-04-11T08:42:32.386Z,105
2019-04-11T08:43:37.299Z,113
2019-04-11T08:44:42.055Z,119
2019-04-11T08:45:46.457Z,133
2019-04-11T08:46:48.642Z,140
2019-04-11T08:48:02.380Z,125
2019-04-11T08:49:07.883Z,116
2019-04-11T08:50:12.698Z,111
2019-04-11T08:51:19.031Z,111
2019-04-11T08:52:24.890Z,110
2019-04-11T08:53:29.528Z,111
2019-04-11T08:54:33.742Z,111
2019-04-11T08:56:07.020Z,114
2019-04-11T08:57:12.151Z,118
2019-04-11T08:58:16.605Z,121
2019-04-11T08:59:22.351Z,119
2019-04-11T09:00:26.669Z,122
2019-04-11T09:01:30.362Z,129
2019-04-11T09:02:33.817Z,144
2019-04-11T09:03:36.411Z,168
2019-04-11T09:04:43.230Z,191
2019-04-11T09:05:45.692Z,171
2019-04-11T09:06:49.621Z,184
2019-04-11T09:07:54.313Z,160
2019-04-11T09:08:59.148Z,146
2019-04-11T09:10:03.705Z,125
2019-04-11T09:11:09.209Z,117
2019-04-11T09:12:12.559Z,108
2019-04-11T09:13:15.820Z,103
2019-04-11T09:14:18.552Z,113
2019-04-11T09:15:21.872Z,138
2019-04-11T09:16:26.170Z,187
2019-04-11T09:17:30.699Z,154
2019-04-11T09:18:34.951Z,133
2019-04-11T09:19:37.397Z,175
2019-04-11T09:20:40.680Z,132
2019-04-11T09:21:44.977Z,119
2019-04-11T09:22:49.396Z,135
2019-04-11T09:23:52.631Z,115
2019-04-11T09:24:57.078Z,185
2019-04-11T09:26:03.478Z,169
2019-04-11T09:27:06.981Z,249
2019-04-11T09:28:11.568Z,238
2019-04-11T09:29:16.002Z,164
2019-04-11T09:30:21.360Z,142
2019-04-11T09:31:23.940Z,120
2019-04-11T09:32:28.951Z,117
2019-04-11T09:33:33.525Z,112
2019-04-11T09:34:38.076Z,104
2019-04-11T09:35:41.947Z,99
2019-04-11T09:36:45.534Z,99
2019-04-11T09:37:47.593Z,99
2019-04-11T09:38:52.746Z,92
2019-04-11T09:39:56.498Z,89
2019-04-11T09:41:01.639Z,85
2019-04-11T09:42:05.564Z,82
2019-04-11T09:43:09.919Z,88
2019-04-11T09:44:13.479Z,82
2019-04-11T09:45:15.896Z,82
2019-04-11T09:46:19.118Z,77
2019-04-11T09:47:22.549Z,77
2019-04-11T09:48:27.365Z,81
2019-04-11T09:49:31.480Z,83
2019-04-11T09:50:34.590Z,84
2019-04-11T09:51:38.568Z,84
2019-04-11T09:52:42.434Z,88
2019-04-11T09:53:45.627Z,90
2019-04-11T09:54:48.893Z,90
2019-04-11T09:55:51.294Z,86
2019-04-11T09:56:55.938Z,82
2019-04-11T09:58:04.607Z,77
2019-04-11T09:59:09.271Z,73
2019-04-11T10:00:14.912Z,73
2019-04-11T10:01:20.175Z,73
2019-04-11T10:02:23.751Z,73
2019-04-11T10:03:28.822Z,71
2019-04-11T10:04:32.498Z,68
2019-04-11T10:05:36.121Z,66
2019-04-11T10:06:40.877Z,65
2019-04-11T10:07:44.691Z,65
2019-04-11T10:08:49.285Z,66
2019-04-11T10:09:57.002Z,66
2019-04-11T10:11:01.649Z,66
2019-04-11T10:12:06.897Z,64
2019-04-11T10:13:11.273Z,61
2019-04-11T10:14:16.067Z,58
2019-04-11T10:15:19.461Z,56
2019-04-11T10:16:24.049Z,54
2019-04-11T10:17:28.305Z,53
2019-04-11T10:18:45.216Z,51
2019-04-11T10:19:48.990Z,50
2019-04-11T10:20:54.986Z,49
2019-04-11T10:21:59.383Z,45
2019-04-11T10:23:06.095Z,43
2019-04-11T10:24:10.007Z,41
2019-04-11T10:25:13.351Z,38
2019-04-11T10:26:18.019Z,37
2019-04-11T10:27:23.010Z,35
2019-04-11T10:28:27.714Z,33
2019-04-11T10:29:36.502Z,31
2019-04-11T10:30:41.905Z,29
2019-04-11T10:31:46.387Z,27
2019-04-11T10:32:50.085Z,26
2019-04-11T10:33:53.395Z,24
2019-04-11T10:34:55.441Z,22
2019-04-11T10:35:59.319Z,21
2019-04-11T10:37:04.630Z,21
2019-04-11T10:38:09.075Z,22
2019-04-11T10:39:13.603Z,23
2019-04-11T10:40:21.665Z,21
2019-04-11T10:41:25.659Z,20
2019-04-11T10:42:31.251Z,19
2019-04-11T10:43:34.741Z,18
2019-04-11T10:44:40.568Z,18
2019-04-11T10:45:45.039Z,18
2019-04-11T10:46:49.987Z,18
2019-04-11T10:47:56.149Z,17
2019-04-11T10:48:58.371Z,17
2019-04-11T10:50:03.036Z,16
2019-04-11T10:51:07.071Z,15
2019-04-11T10:52:12.671Z,14
2019-04-11T10:53:19.642Z,15
2019-04-11T10:54:24.171Z,18
2019-04-11T10:55:29.190Z,21
2019-04-11T10:56:33.324Z,24
2019-04-11T10:57:36.820Z,26
2019-04-11T10:58:39.246Z,27
2019-04-11T10:59:43.424Z,28
2019-04-11T11:00:47.769Z,29
2019-04-11T11:01:52.568Z,29
2019-04-11T11:02:56.185Z,30
2019-04-11T11:04:01.104Z,30
2019-04-11T11:05:07.252Z,31
2019-04-11T11:06:09.715Z,32
2019-04-11T11:07:14.475Z,33
2019-04-11T11:08:17.825Z,34
2019-04-11T11:09:22.270Z,34
2019-04-11T11:10:26.172Z,35
2019-04-11T11:11:30.890Z,36
2019-04-11T11:12:35.491Z,38
2019-04-11T11:13:42.795Z,40
2019-04-11T11:14:47.550Z,42
2019-04-11T11:15:52.283Z,46
2019-04-11T11:16:55.395Z,47
2019-04-11T11:20:27.788Z,49
2019-04-11T11:21:39.485Z,52
2019-04-11T11:22:46.549Z,51
2019-04-11T11:23:54.617Z,51
2019-04-11T11:24:58.274Z,49
2019-04-11T11:26:02.995Z,48
2019-04-11T11:27:09.380Z,47
2019-04-11T11:28:14.750Z,45
2019-04-11T11:29:21.619Z,45
2019-04-11T11:30:25.603Z,45
2019-04-11T11:31:30.534Z,44
2019-04-11T11:32:34.169Z,43
2019-04-11T11:33:38.445Z,42
2019-04-11T11:34:42.115Z,41
2019-04-11T11:35:46.242Z,40
2019-04-11T11:36:56.644Z,39
2019-04-11T11:38:02.369Z,38
2019-04-11T11:39:05.057Z,36
2019-04-11T11:40:20.245Z,34
2019-04-11T11:41:24.437Z,33
2019-04-11T11:42:28.652Z,33
2019-04-11T11:43:34.941Z,32
2019-04-11T11:44:39.549Z,31
2019-04-11T11:45:57.592Z,30
2019-04-11T11:47:08.417Z,29
2019-04-11T11:48:28.132Z,28
2019-04-11T11:50:19.693Z,27
2019-04-11T11:51:33.752Z,26
2019-04-11T11:52:39.710Z,27
2019-04-11T11:53:43.326Z,27
2019-04-11T11:54:46.602Z,27
2019-04-11T11:55:49.966Z,27
2019-04-11T11:56:52.291Z,27
2019-04-11T11:57:55.567Z,28
2019-04-11T11:59:03.385Z,28
2019-04-11T12:00:07.734Z,29
2019-04-11T12:01:12.276Z,29
2019-04-11T12:02:23.787Z,30
2019-04-11T12:03:33.617Z,30
2019-04-11T12:04:42.633Z,31
2019-04-11T12:05:55.281Z,32
2019-04-11T12:07:09.414Z,34
2019-04-11T12:08:20.813Z,34
2019-04-11T12:09:25.053Z,35
2019-04-11T12:10:28.600Z,37
2019-04-11T12:11:32.766Z,39
2019-04-11T12:12:36.196Z,43
2019-04-11T12:13:43.169Z,43
2019-04-11T12:14:50.197Z,46
2019-04-11T12:15:54.285Z,47
2019-04-11T12:17:10.343Z,48
2019-04-11T12:18:21.858Z,49
2019-04-11T12:19:25.320Z,49
2019-04-11T12:20:29.485Z,50
2019-04-11T12:21:33.085Z,50
2019-04-11T12:22:37.342Z,51
2019-04-11T12:24:11.611Z,52
2019-04-11T12:25:15.000Z,53
2019-04-11T12:26:22.266Z,52
2019-04-11T12:27:26.702Z,52
2019-04-11T12:28:30.306Z,52
2019-04-11T12:29:34.752Z,52
2019-04-11T12:30:39.761Z,52
2019-04-11T12:31:44.402Z,53
2019-04-11T12:32:49.111Z,54
2019-04-11T12:33:52.735Z,54
2019-04-11T12:34:56.139Z,53
2019-04-11T12:36:01.474Z,53
2019-04-11T12:37:06.156Z,52
2019-04-11T12:38:08.277Z,51
2019-04-11T12:39:10.308Z,51
2019-04-11T12:40:12.418Z,49
2019-04-11T12:41:14.454Z,48
2019-04-11T12:42:16.515Z,46
2019-04-11T12:43:18.824Z,45
2019-04-11T12:44:20.857Z,44
2019-04-11T12:45:23.407Z,44
2019-04-11T12:46:31.332Z,44
2019-04-11T12:47:33.381Z,44
2019-04-11T12:48:35.451Z,44
2019-04-11T12:49:37.525Z,44
2019-04-11T12:50:39.553Z,44
2019-04-11T12:51:41.593Z,43
2019-04-11T12:52:43.653Z,42
2019-04-11T12:53:45.690Z,41
2019-04-11T12:54:47.742Z,40
2019-04-11T12:55:50.160Z,40
2019-04-11T12:56:52.219Z,39
2019-04-11T12:57:54.245Z,39
2019-04-11T12:58:56.591Z,39
2019-04-11T12:59:58.649Z,40
2019-04-11T13:01:00.699Z,41
2019-04-11T13:02:03.026Z,42
2019-04-11T13:03:05.339Z,42
2019-04-11T13:04:07.368Z,42
2019-04-11T13:05:09.401Z,41
2019-04-11T13:06:11.455Z,41
2019-04-11T13:07:13.605Z,40
2019-04-11T13:08:15.719Z,39
2019-04-11T13:09:17.783Z,38
2019-04-11T13:10:19.822Z,38
2019-04-11T13:11:21.870Z,37
2019-04-11T13:12:23.903Z,36
2019-04-11T13:13:25.944Z,35
2019-04-11T13:14:27.970Z,34
2019-04-11T13:15:30.030Z,33
2019-04-11T13:16:32.073Z,33
2019-04-11T13:17:34.395Z,33
2019-04-11T13:18:36.448Z,32
2019-04-11T13:19:38.471Z,31
2019-04-11T13:20:40.511Z,30
2019-04-11T13:21:42.592Z,30
2019-04-11T13:22:44.924Z,29
2019-04-11T13:23:47.235Z,29
2019-04-11T13:24:49.598Z,29
2019-04-11T13:25:51.631Z,28
2019-04-11T13:26:53.673Z,28
2019-04-11T13:27:55.723Z,28
2019-04-11T13:28:57.747Z,28
2019-04-11T13:29:59.820Z,28
2019-04-11T13:31:01.863Z,29
2019-04-11T13:32:04.178Z,29
2019-04-11T13:33:06.592Z,28
2019-04-11T13:34:11.622Z,28
2019-04-11T13:35:13.705Z,27
2019-04-11T13:36:16.127Z,28
2019-04-11T13:37:18.155Z,29
2019-04-11T13:38:20.256Z,31
2019-04-11T13:39:22.306Z,34
2019-04-11T13:40:24.328Z,34
2019-04-11T13:41:26.363Z,34
2019-04-11T13:42:28.396Z,34
2019-04-11T13:43:30.707Z,33
2019-04-11T13:44:33.146Z,32
2019-04-11T13:45:35.459Z,30
2019-04-11T13:46:37.495Z,29
2019-04-11T13:47:39.765Z,29
2019-04-11T13:48:45.869Z,29
2019-04-11T13:49:48.285Z,28
2019-04-11T13:50:50.319Z,28
2019-04-11T13:51:52.370Z,28
2019-04-11T13:52:54.434Z,28
2019-04-11T13:53:56.523Z,28
2019-04-11T13:54:58.559Z,28
2019-04-11T13:56:00.601Z,29
2019-04-11T13:57:03.298Z,29
2019-04-11T13:58:05.339Z,30
2019-04-11T13:59:07.377Z,30
2019-04-11T14:00:09.402Z,30
2019-04-11T14:01:11.832Z,30
2019-04-11T14:02:13.924Z,30
2019-04-11T14:03:15.967Z,31
2019-04-11T14:04:18.011Z,31
2019-04-11T14:05:20.334Z,31
2019-04-11T14:06:22.985Z,32
2019-04-11T14:07:25.443Z,33
2019-04-11T14:08:27.484Z,33
2019-04-11T14:09:32.442Z,34
2019-04-11T14:10:34.495Z,35
2019-04-11T14:11:36.522Z,35
2019-04-11T14:12:38.566Z,36
2019-04-11T14:13:40.585Z,37
2019-04-11T14:14:42.639Z,38
2019-04-11T14:15:44.675Z,39
2019-04-11T14:16:46.706Z,40
2019-04-11T14:17:48.769Z,41
2019-04-11T14:18:50.814Z,41
2019-04-11T14:19:52.861Z,41
2019-04-11T14:20:55.450Z,41
2019-04-11T14:21:57.904Z,40
2019-04-11T14:22:59.935Z,38
2019-04-11T14:24:02.254Z,39
2019-04-11T14:25:04.867Z,40
2019-04-11T14:26:07.172Z,41
2019-04-11T14:27:09.605Z,41
2019-04-11T14:28:11.640Z,40
2019-04-11T14:29:13.679Z,41
2019-04-11T14:30:20.329Z,41
2019-04-11T14:31:24.234Z,41
2019-04-11T14:32:26.277Z,39
2019-04-11T14:33:28.548Z,38
2019-04-11T14:34:30.736Z,37
2019-04-11T14:35:33.044Z,36
2019-04-11T14:36:35.592Z,36
2019-04-11T14:37:40.489Z,35
2019-04-11T14:38:53.236Z,34
2019-04-11T14:39:55.263Z,30
2019-04-11T14:41:03.965Z,29
2019-04-11T14:42:07.019Z,30
2019-04-11T14:43:09.455Z,30
2019-04-11T14:44:15.744Z,26
2019-04-11T14:45:18.235Z,24
2019-04-11T14:46:20.286Z,19
2019-04-11T14:47:22.335Z,14
2019-04-11T14:48:24.373Z,11
2019-04-11T14:49:28.421Z,9
2019-04-11T14:50:46.359Z,6
2019-04-11T14:51:48.400Z,5
2019-04-11T14:52:51.016Z,5
2019-04-11T14:53:53.078Z,5
2019-04-11T14:54:55.129Z,5
2019-04-11T14:55:57.144Z,6
2019-04-11T14:56:59.188Z,7
2019-04-11T14:58:01.251Z,8
2019-04-11T14:59:03.275Z,8
2019-04-11T15:00:05.716Z,8
2019-04-11T15:01:08.015Z,9
2019-04-11T15:02:10.337Z,9
2019-04-11T15:03:12.366Z,10
2019-04-11T15:04:15.273Z,10
2019-04-11T15:05:17.308Z,10
2019-04-11T15:06:19.342Z,10
2019-04-11T15:07:22.060Z,10
2019-04-11T15:08:24.078Z,10
2019-04-11T15:09:26.127Z,9
2019-04-11T15:10:28.185Z,9
2019-04-11T15:11:30.202Z,10
2019-04-11T15:12:32.531Z,10
2019-04-11T15:13:34.577Z,9
2019-04-11T15:14:37.297Z,9
2019-04-11T15:15:39.623Z,9
2019-04-11T15:16:41.948Z,9
2019-04-11T15:17:43.970Z,9
2019-04-11T15:18:46.286Z,9
2019-04-11T15:19:48.335Z,9
2019-04-11T15:20:57.163Z,9
2019-04-11T15:21:59.208Z,9
2019-04-11T15:23:01.243Z,9
2019-04-11T15:24:03.307Z,9
2019-04-11T15:25:09.653Z,10
2019-04-11T15:26:11.975Z,10
2019-04-11T15:27:14.024Z,11
2019-04-11T15:28:16.047Z,11
2019-04-11T15:29:18.109Z,12
2019-04-11T15:30:20.446Z,12
2019-04-11T15:31:25.645Z,12
2019-04-11T15:32:28.782Z,12
2019-04-11T15:33:31.604Z,12
2019-04-11T15:34:34.342Z,12
2019-04-11T15:35:37.151Z,12
2019-04-11T15:36:41.150Z,12
2019-04-11T15:37:43.275Z,12
2019-04-11T15:38:45.302Z,13
2019-04-11T15:39:47.335Z,13
2019-04-11T15:40:49.669Z,13
2019-04-11T15:42:03.921Z,13
2019-04-11T15:43:05.990Z,14
2019-04-11T15:44:08.090Z,14
2019-04-11T15:45:14.446Z,15
2019-04-11T15:46:18.758Z,15
2019-04-11T15:47:20.932Z,15
2019-04-11T15:48:25.298Z,15
2019-04-11T15:49:32.963Z,15
2019-04-11T15:50:34.995Z,14
2019-04-11T15:51:37.016Z,14
2019-04-11T15:52:39.061Z,13
2019-04-11T15:53:41.105Z,13
2019-04-11T15:54:43.133Z,13
2019-04-11T15:55:45.190Z,13
2019-04-11T15:56:47.262Z,13
2019-04-11T15:57:49.292Z,12
2019-04-11T15:58:51.348Z,12
2019-04-11T15:59:55.590Z,12
2019-04-11T16:00:57.623Z,11
2019-04-11T16:02:02.524Z,11
2019-04-11T16:03:04.760Z,11
2019-04-11T16:04:07.224Z,11
2019-04-11T16:05:09.259Z,11
2019-04-11T16:06:11.337Z,11
2019-04-11T16:07:13.646Z,9
2019-04-11T16:08:15.695Z,8
2019-04-11T16:09:18.045Z,7
2019-04-11T16:10:20.130Z,7
2019-04-11T16:11:22.172Z,7
2019-04-11T16:12:24.240Z,7
2019-04-11T16:13:26.269Z,7
2019-04-11T16:14:28.705Z,7
2019-04-11T16:15:32.800Z,7
2019-04-11T16:16:35.244Z,7
2019-04-11T16:17:37.609Z,8
2019-04-11T16:18:39.678Z,8
2019-04-11T16:19:41.732Z,8
2019-04-11T16:20:51.276Z,8
2019-04-11T16:21:56.398Z,8
2019-04-11T16:22:58.429Z,8
2019-04-11T16:24:00.462Z,8
2019-04-11T16:25:02.515Z,9
2019-04-11T16:26:04.546Z,8
2019-04-11T16:27:06.568Z,8
2019-04-11T16:28:09.417Z,8
2019-04-11T16:29:11.748Z,8
2019-04-11T16:30:14.169Z,8
2019-04-11T16:31:16.234Z,7
2019-04-11T16:32:18.256Z,7
2019-04-11T16:33:20.307Z,7
2019-04-11T16:34:22.633Z,6
2019-04-11T16:35:27.633Z,6
2019-04-11T16:36:29.649Z,5
2019-04-11T16:37:31.687Z,5
2019-04-11T16:38:35.129Z,5
2019-04-11T16:39:37.166Z,5
2019-04-11T16:40:39.204Z,5
2019-04-11T16:41:41.231Z,5
2019-04-11T16:42:43.273Z,5
2019-04-11T16:43:45.296Z,5
2019-04-11T16:44:47.609Z,5
2019-04-11T16:45:49.651Z,5
2019-04-11T16:46:56.796Z,5
2019-04-11T16:47:58.865Z,5
2019-04-11T16:49:00.939Z,5
2019-04-11T16:50:02.975Z,5
2019-04-11T16:51:07.542Z,5
2019-04-11T16:52:09.807Z,5
2019-04-11T16:53:12.904Z,5
2019-04-11T16:54:14.929Z,5
2019-04-11T16:55:16.996Z,5
2019-04-11T16:56:19.041Z,5
2019-04-11T16:57:21.084Z,4
2019-04-11T16:58:23.164Z,4
2019-04-11T16:59:25.759Z,4
2019-04-11T17:00:28.065Z,4
2019-04-11T17:01:30.115Z,4
2019-04-11T17:02:32.207Z,4
2019-04-11T17:03:34.240Z,4
2019-04-11T17:04:36.375Z,4
2019-04-11T17:05:38.810Z,3
2019-04-11T17:06:40.850Z,3
2019-04-11T17:07:42.896Z,3
2019-04-11T17:08:44.937Z,3
2019-04-11T17:09:46.967Z,3
2019-04-11T17:10:49.014Z,3
2019-04-11T17:11:51.346Z,3
2019-04-11T17:12:57.720Z,3
2019-04-11T17:14:00.070Z,3
2019-04-11T17:15:02.982Z,2
2019-04-11T17:16:05.319Z,2
2019-04-11T17:17:16.701Z,2
2019-04-11T17:18:20.239Z,2
2019-04-11T17:19:22.271Z,2
2019-04-11T17:20:24.302Z,2
2019-04-11T17:21:26.338Z,2
2019-04-11T17:22:29.706Z,2
2019-04-11T17:23:31.745Z,2
2019-04-11T17:24:33.846Z,2
2019-04-11T17:25:35.908Z,2
2019-04-11T17:26:37.964Z,1
2019-04-11T17:27:39.999Z,1
2019-04-11T17:28:45.144Z,1
2019-04-11T17:29:47.184Z,1
2019-04-11T17:30:49.214Z,1
2019-04-11T17:31:51.230Z,1
2019-04-11T17:32:57.209Z,1
2019-04-11T17:34:06.454Z,1
2019-04-11T17:35:08.473Z,1
2019-04-11T17:36:10.512Z,1
2019-04-11T17:37:12.831Z,1
2019-04-11T17:38:14.852Z,1
2019-04-11T17:39:16.893Z,1
2019-04-11T17:40:18.914Z,1
2019-04-11T17:41:20.952Z,1
2019-04-11T17:42:22.983Z,1
2019-04-11T17:43:25.027Z,1
2019-04-11T17:44:27.065Z,1
2019-04-11T17:45:29.093Z,1
2019-04-11T17:46:31.123Z,1
2019-04-11T17:47:33.151Z,1
2019-04-11T17:48:35.477Z,0
2019-04-11T17:49:37.564Z,0
2019-04-11T17:50:39.604Z,0
2019-04-11T17:51:57.202Z,0
2019-04-11T17:52:59.234Z,0
2019-04-11T17:54:02.736Z,0
2019-04-11T17:55:04.763Z,0
2019-04-11T17:56:06.815Z,0
2019-04-11T17:57:08.840Z,0
2019-04-11T17:58:10.874Z,0
2019-04-11T17:59:13.756Z,0
2019-04-11T18:00:15.787Z,0
2019-04-11T18:01:17.818Z,0
2019-04-11T18:02:19.846Z,0
2019-04-11T18:03:21.968Z,0
2019-04-11T18:04:24.010Z,0
2019-04-11T18:05:26.027Z,0
2019-04-11T18:06:28.067Z,0
2019-04-11T18:07:30.138Z,0
2019-04-11T18:08:32.542Z,0
2019-04-11T18:09:34.589Z,0
2019-04-11T18:10:36.902Z,0
2019-04-11T18:11:38.983Z,0
2019-04-11T18:12:41.303Z,0
2019-04-11T18:13:43.325Z,0
2019-04-11T18:14:45.631Z,0
2019-04-11T18:15:47.650Z,0
2019-04-11T18:16:49.752Z,0
2019-04-11T18:17:52.057Z,0
2019-04-11T18:18:54.481Z,0
2019-04-11T18:19:56.518Z,0
2019-04-11T18:20:58.530Z,0
2019-04-11T18:22:15.489Z,0
2019-04-11T18:23:21.410Z,0
2019-04-11T18:24:23.452Z,0
2019-04-11T18:25:25.469Z,0
2019-04-11T18:26:27.517Z,0
2019-04-11T18:27:29.549Z,0
2019-04-11T18:28:31.574Z,0
2019-04-11T18:29:33.621Z,0
2019-04-11T18:30:35.659Z,0
2019-04-11T18:31:37.698Z,0
2019-04-11T18:32:39.741Z,0
2019-04-11T18:33:41.775Z,0
2019-04-11T18:34:43.798Z,0
2019-04-11T18:35:46.168Z,0
2019-04-11T18:36:48.576Z,0
2019-04-11T18:37:50.614Z,0
2019-04-11T18:38:52.670Z,0
2019-04-11T18:39:54.708Z,0
2019-04-11T18:40:56.744Z,0
2019-04-11T18:41:59.365Z,0
2019-04-11T18:43:01.679Z,0
2019-04-11T18:44:04.025Z,0
2019-04-11T18:45:06.340Z,0
2019-04-11T18:46:09.063Z,0
2019-04-11T18:47:11.096Z,0
2019-04-11T18:48:13.144Z,0
2019-04-11T18:49:15.174Z,0
2019-04-11T18:50:17.889Z,0
2019-04-11T18:51:24.723Z,0
2019-04-11T18:52:30.245Z,0
2019-04-11T18:53:32.292Z,0
2019-04-11T18:54:34.309Z,0
2019-04-11T18:55:36.631Z,0
2019-04-11T18:56:39.519Z,0
2019-04-11T18:57:41.839Z,0
2019-04-11T18:58:43.856Z,0
2019-04-11T18:59:45.897Z,0
2019-04-11T19:00:48.207Z,0
2019-04-11T19:01:50.626Z,0
2019-04-11T19:02:52.661Z,0
2019-04-11T19:03:54.684Z,0
2019-04-11T19:04:56.743Z,0
2019-04-11T19:05:58.788Z,0
2019-04-11T19:07:01.106Z,0
2019-04-11T19:08:03.412Z,0
2019-04-11T19:09:05.446Z,0
2019-04-11T19:10:07.792Z,0
2019-04-11T19:11:09.821Z,0
2019-04-11T19:12:16.542Z,0
2019-04-11T19:13:19.127Z,0
2019-04-11T19:14:21.156Z,0
2019-04-11T19:15:23.214Z,0
2019-04-11T19:16:25.238Z,0
2019-04-11T19:17:30.106Z,0
2019-04-11T19:18:32.455Z,0
2019-04-11T19:19:34.497Z,0
2019-04-11T19:20:36.518Z,0
2019-04-11T19:21:38.560Z,0
2019-04-11T19:22:40.581Z,0
2019-04-11T19:23:42.624Z,0
2019-04-11T19:24:44.658Z,0
2019-04-11T19:25:46.701Z,0
2019-04-11T19:26:48.738Z,0
2019-04-11T19:27:58.216Z,0
2019-04-11T19:29:01.712Z,0
2019-04-11T19:30:03.859Z,0
2019-04-11T19:31:05.901Z,0
2019-04-11T19:32:07.920Z,0
2019-04-11T19:33:09.961Z,0
2019-04-11T19:34:11.992Z,0
2019-04-11T19:35:14.021Z,0
2019-04-11T19:36:16.092Z,0
2019-04-11T19:37:18.131Z,0
2019-04-11T19:38:20.166Z,0
2019-04-11T19:39:24.499Z,0
2019-04-11T19:40:26.534Z,0
2019-04-11T19:41:29.153Z,0
2019-04-11T19:42:31.194Z,0
2019-04-11T19:43:33.221Z,0
2019-04-11T19:44:36.452Z,0
2019-04-11T19:45:38.490Z,0
2019-04-11T19:46:42.532Z,0
2019-04-11T19:47:44.940Z,0
2019-04-11T19:48:46.981Z,0
2019-04-11T19:49:49.003Z,0
2019-04-11T19:50:51.415Z,0
2019-04-11T19:51:53.454Z,0
2019-04-11T19:52:55.476Z,0
2019-04-11T19:53:58.079Z,0
2019-04-11T19:55:00.121Z,0
2019-04-11T19:56:07.084Z,0
2019-04-11T19:57:09.667Z,0
2019-04-11T19:58:12.083Z,0
2019-04-11T19:59:14.498Z,0
2019-04-11T20:00:16.526Z,0
2019-04-11T20:01:23.610Z,0
2019-04-11T20:02:25.669Z,0
2019-04-11T20:03:27.715Z,0
2019-04-11T20:04:29.737Z,0
2019-04-11T20:05:31.784Z,0
2019-04-11T20:06:33.811Z,0
2019-04-11T20:07:36.248Z,0
2019-04-11T20:08:38.299Z,0
2019-04-11T20:09:40.595Z,0
2019-04-11T20:10:42.638Z,0
2019-04-11T20:11:46.489Z,0
2019-04-11T20:12:48.508Z,0
2019-04-11T20:13:50.566Z,0
2019-04-11T20:14:52.658Z,0
2019-04-11T20:15:54.690Z,0
2019-04-11T20:16:56.726Z,0
2019-04-11T20:17:58.753Z,0
2019-04-11T20:19:02.081Z,0
2019-04-11T20:20:08.955Z,0
2019-04-11T20:21:11.671Z,0
2019-04-11T20:22:14.407Z,0
2019-04-11T20:23:16.508Z,0
2019-04-11T20:24:18.542Z,0
2019-04-11T20:25:20.583Z,0
2019-04-11T20:26:23.018Z,0
2019-04-11T20:27:25.042Z,0
2019-04-11T20:28:28.179Z,0
2019-04-11T20:29:30.216Z,0
2019-04-11T20:30:32.266Z,0
2019-04-11T20:31:34.292Z,0
2019-04-11T20:32:36.598Z,0
2019-04-11T20:33:38.631Z,0
2019-04-11T20:34:41.062Z,0
2019-04-11T20:35:43.083Z,0
2019-04-11T20:36:45.400Z,0
2019-04-11T20:37:47.427Z,0
2019-04-11T20:38:50.606Z,0
2019-04-11T20:39:52.650Z,0
2019-04-11T20:40:54.679Z,0
2019-04-11T20:41:56.725Z,0
2019-04-11T20:42:59.043Z,0
2019-04-11T20:44:01.084Z,0
2019-04-11T20:45:03.688Z,0
2019-04-11T20:46:05.709Z,0
2019-04-11T20:47:07.745Z,0
2019-04-11T20:48:09.780Z,0
2019-04-11T20:49:11.813Z,0
2019-04-11T20:50:13.845Z,0
2019-04-11T20:51:18.926Z,0
2019-04-11T20:52:20.994Z,0
2019-04-11T20:53:23.034Z,0
2019-04-11T20:54:25.073Z,0
2019-04-11T20:55:27.762Z,0
2019-04-11T20:56:29.792Z,0
2019-04-11T20:57:31.825Z,0
2019-04-11T20:58:34.144Z,0
2019-04-11T20:59:43.813Z,0
2019-04-11T21:00:57.460Z,0
2019-04-11T21:02:00.029Z,0
2019-04-11T21:03:02.446Z,0
2019-04-11T21:04:06.125Z,0
2019-04-11T21:05:08.149Z,0
2019-04-11T21:06:10.453Z,0
2019-04-11T21:07:12.487Z,0
2019-04-11T21:08:14.505Z,0
2019-04-11T21:09:16.939Z,0
2019-04-11T21:10:19.263Z,0
2019-04-11T21:11:21.970Z,0
2019-04-11T21:12:23.987Z,0
2019-04-11T21:13:26.034Z,0
2019-04-11T21:14:28.219Z,0
2019-04-11T21:15:30.263Z,0
2019-04-11T21:16:32.278Z,0
2019-04-11T21:17:34.316Z,0
2019-04-11T21:18:36.342Z,0
2019-04-11T21:19:38.363Z,0
2019-04-11T21:20:40.928Z,0
2019-04-11T21:21:42.973Z,0
2019-04-11T21:22:45.299Z,0
2019-04-11T21:23:47.328Z,0
2019-04-11T21:24:49.359Z,0
2019-04-11T21:25:51.371Z,0
2019-04-11T21:26:53.395Z,0
2019-04-11T21:28:00.633Z,0
2019-04-11T21:29:02.651Z,0
2019-04-11T21:30:04.687Z,0
2019-04-11T21:31:06.719Z,0
2019-04-11T21:32:08.740Z,0
2019-04-11T21:33:10.786Z,0
2019-04-11T21:34:13.094Z,0
2019-04-11T21:35:15.504Z,0
2019-04-11T21:36:17.520Z,0
2019-04-11T21:37:19.563Z,0
2019-04-11T21:38:21.611Z,0
2019-04-11T21:39:24.023Z,0
2019-04-11T21:40:26.449Z,0
2019-04-11T21:41:28.462Z,0
2019-04-11T21:42:30.551Z,0
2019-04-11T21:43:37.527Z,0
2019-04-11T21:44:39.852Z,0
2019-04-11T21:45:41.875Z,0
2019-04-11T21:46:43.912Z,0
2019-04-11T21:47:45.947Z,0
2019-04-11T21:48:47.972Z,0
2019-04-11T21:49:50.014Z,0
2019-04-11T21:50:52.424Z,0
2019-04-11T21:51:54.483Z,0
2019-04-11T21:52:56.888Z,0
2019-04-11T21:53:58.928Z,0
2019-04-11T21:55:01.265Z,0
2019-04-11T21:56:03.358Z,0
2019-04-11T21:57:05.688Z,0
2019-04-11T21:58:07.718Z,0
2019-04-11T21:59:09.740Z,0
2019-04-11T22:00:12.057Z,0
2019-04-11T22:01:14.502Z,0
2019-04-11T22:02:16.526Z,0
2019-04-11T22:03:18.563Z,0
2019-04-11T22:04:20.589Z,0
2019-04-11T22:05:22.606Z,0
2019-04-11T22:06:24.647Z,0
2019-04-11T22:07:31.065Z,0
2019-04-11T22:08:36.206Z,0
2019-04-11T22:09:38.223Z,0
2019-04-11T22:10:42.148Z,0
2019-04-11T22:11:44.167Z,0
2019-04-11T22:12:46.188Z,0
2019-04-11T22:13:48.223Z,0
2019-04-11T22:14:50.244Z,0
2019-04-11T22:15:52.576Z,0
2019-04-11T22:16:56.672Z,0
2019-04-11T22:17:58.710Z,0
2019-04-11T22:19:00.731Z,0
2019-04-11T22:20:02.766Z,0
2019-04-11T22:21:04.807Z,0
2019-04-11T22:22:06.835Z,0
2019-04-11T22:23:08.880Z,0
2019-04-11T22:24:10.904Z,0
2019-04-11T22:25:13.243Z,0
2019-04-11T22:26:15.281Z,0
2019-04-11T22:27:17.309Z,0
2019-04-11T22:28:24.825Z,0
2019-04-11T22:29:27.355Z,0
2019-04-11T22:30:29.383Z,0
2019-04-11T22:31:31.416Z,0
2019-04-11T22:32:33.464Z,0
2019-04-11T22:33:35.510Z,0
2019-04-11T22:34:37.524Z,0
2019-04-11T22:35:39.576Z,0
2019-04-11T22:36:41.605Z,0
2019-04-11T22:37:43.635Z,0
2019-04-11T22:38:45.664Z,0
2019-04-11T22:39:47.676Z,0
2019-04-11T22:40:49.717Z,0
2019-04-11T22:41:51.749Z,0
2019-04-11T22:42:54.073Z,0
2019-04-11T22:43:56.087Z,0
2019-04-11T22:44:58.124Z,0
2019-04-11T22:46:00.447Z,0
2019-04-11T22:47:02.477Z,0
2019-04-11T22:48:08.394Z,0
2019-04-11T22:49:10.769Z,0
2019-04-11T22:50:12.793Z,0
2019-04-11T22:51:14.827Z,0
2019-04-11T22:52:16.878Z,0
2019-04-11T22:53:18.897Z,0
2019-04-11T22:54:20.922Z,0
2019-04-11T22:55:22.967Z,0
2019-04-11T22:56:25.274Z,0
2019-04-11T22:57:27.318Z,0
2019-04-11T22:58:29.349Z,0
2019-04-11T22:59:31.785Z,0
2019-04-11T23:00:33.811Z,0
2019-04-11T23:01:35.846Z,0
2019-04-11T23:02:38.170Z,0
2019-04-11T23:03:40.199Z,0
2019-04-11T23:04:42.237Z,0
2019-04-11T23:05:48.620Z,0
2019-04-11T23:06:51.331Z,0
2019-04-11T23:07:53.371Z,0
2019-04-11T23:08:55.414Z,0
2019-04-11T23:09:57.531Z,0
2019-04-11T23:10:59.555Z,0
2019-04-11T23:12:01.644Z,0
2019-04-11T23:13:03.977Z,0
2019-04-11T23:14:06.053Z,0
2019-04-11T23:15:08.082Z,0
2019-04-11T23:16:14.369Z,0
2019-04-11T23:17:16.991Z,0
2019-04-11T23:18:19.604Z,0
2019-04-11T23:19:21.631Z,0
2019-04-11T23:20:23.671Z,0
2019-04-11T23:21:25.726Z,0
2019-04-11T23:22:28.138Z,0
2019-04-11T23:23:30.168Z,0
2019-04-11T23:24:32.471Z,0
2019-04-11T23:25:34.515Z,0
2019-04-11T23:26:36.824Z,0
2019-04-11T23:27:39.144Z,0
2019-04-11T23:28:41.172Z,0
2019-04-11T23:29:48.100Z,0
2019-04-11T23:30:51.922Z,0
2019-04-11T23:31:54.423Z,0
2019-04-11T23:32:56.461Z,0
2019-04-11T23:33:58.513Z,0
2019-04-11T23:35:00.770Z,0
2019-04-11T23:36:03.240Z,0
2019-04-11T23:37:05.282Z,0
2019-04-11T23:38:07.337Z,0